createdAt,value
2022-07-30T00:01:29.328Z,70.03
2022-07-30T00:04:32.696Z,70.56
2022-07-30T00:07:35.818Z,70.96
2022-07-30T00:10:39.285Z,71.21
2022-07-30T00:13:42.069Z,71.23
2022-07-30T00:16:45.061Z,71.17
2022-07-30T00:19:47.898Z,70.80
2022-07-30T00:22:51.198Z,71.12
2022-07-30T00:25:54.022Z,71.04
2022-07-30T00:28:57.011Z,71.19
2022-07-30T00:31:59.859Z,71.64
2022-07-30T00:35:03.162Z,71.40
2022-07-30T00:38:07.909Z,71.36
2022-07-30T00:41:11.357Z,71.24
2022-07-30T00:44:15.412Z,71.43
2022-07-30T00:47:18.924Z,70.80
2022-07-30T00:50:22.265Z,71.23
2022-07-30T00:53:27.153Z,71.31
2022-07-30T00:56:30.693Z,70.71
2022-07-30T00:59:34.628Z,70.21
2022-07-30T01:02:37.566Z,70.33
2022-07-30T01:05:40.859Z,70.22
2022-07-30T01:08:44.279Z,69.89
2022-07-30T01:11:47.801Z,69.91
2022-07-30T01:14:50.923Z,69.99
2022-07-30T01:17:57.146Z,70.06
2022-07-30T01:21:09.966Z,69.89
2022-07-30T01:24:25.976Z,70.76
2022-07-30T01:27:30.741Z,70.56
2022-07-30T01:30:37.091Z,70.78
2022-07-30T01:33:44.292Z,70.97
2022-07-30T01:36:47.558Z,70.96
2022-07-30T01:39:51.590Z,70.75
2022-07-30T01:42:58.035Z,70.79
2022-07-30T01:46:03.325Z,71.14
2022-07-30T01:49:08.892Z,71.09
2022-07-30T01:52:12.177Z,71.28
2022-07-30T01:55:18.159Z,71.35
2022-07-30T01:58:23.460Z,71.21
2022-07-30T02:01:27.838Z,71.33
2022-07-30T02:04:32.645Z,71.30
2022-07-30T02:07:57.450Z,71.36
2022-07-30T02:11:06.422Z,71.75
2022-07-30T02:14:18.009Z,72.04
2022-07-30T02:17:30.451Z,72.40
2022-07-30T02:20:51.222Z,72.82
2022-07-30T02:23:57.105Z,73.05
2022-07-30T02:27:07.559Z,73.64
2022-07-30T02:30:11.595Z,73.32
2022-07-30T02:33:15.680Z,73.34
2022-07-30T02:36:19.531Z,73.75
2022-07-30T02:39:24.007Z,73.64
2022-07-30T02:42:27.860Z,73.63
2022-07-30T02:45:31.233Z,74.29
2022-07-30T02:48:35.641Z,74.76
2022-07-30T02:51:39.721Z,75.25
2022-07-30T02:54:43.670Z,74.88
2022-07-30T02:57:47.724Z,74.79
2022-07-30T03:00:52.341Z,75.37
2022-07-30T03:03:55.706Z,75.63
2022-07-30T03:07:02.657Z,75.96
2022-07-30T03:10:11.985Z,75.89
2022-07-30T03:13:15.112Z,76.22
2022-07-30T03:16:20.202Z,76.58
2022-07-30T03:19:24.176Z,76.79
2022-07-30T03:22:32.627Z,76.98
2022-07-30T03:25:37.164Z,77.31
2022-07-30T03:28:40.774Z,78.00
2022-07-30T03:31:44.037Z,78.70
2022-07-30T03:34:48.990Z,79.06
2022-07-30T03:37:53.652Z,79.52
2022-07-30T03:40:59.200Z,79.60
2022-07-30T03:44:02.604Z,79.88
2022-07-30T03:47:12.416Z,80.08
2022-07-30T03:50:15.660Z,80.07
2022-07-30T03:53:19.422Z,80.18
2022-07-30T03:56:26.763Z,80.05
2022-07-30T03:59:30.592Z,80.74
2022-07-30T04:02:41.465Z,80.35
2022-07-30T04:05:49.943Z,80.22
2022-07-30T04:08:52.656Z,80.38
2022-07-30T04:11:56.057Z,80.45
2022-07-30T04:14:59.547Z,80.85
2022-07-30T04:18:04.648Z,80.72
2022-07-30T04:21:17.260Z,80.91
2022-07-30T04:24:21.238Z,81.39
2022-07-30T04:27:25.563Z,81.28
2022-07-30T04:30:29.130Z,81.37
2022-07-30T04:33:32.438Z,81.41
2022-07-30T04:36:37.345Z,81.33
2022-07-30T04:39:40.554Z,81.70
2022-07-30T04:42:43.630Z,81.63
2022-07-30T04:45:46.825Z,81.41
2022-07-30T04:48:49.997Z,81.14
2022-07-30T04:51:53.658Z,80.76
2022-07-30T04:54:59.641Z,80.76
2022-07-30T04:58:03.135Z,80.81
2022-07-30T05:01:09.479Z,80.74
2022-07-30T05:04:13.377Z,80.69
2022-07-30T05:07:22.289Z,80.51
2022-07-30T05:10:26.219Z,80.10
2022-07-30T05:13:34.639Z,79.62
2022-07-30T05:16:41.994Z,79.54
2022-07-30T05:19:47.545Z,78.73
2022-07-30T05:22:52.028Z,78.45
2022-07-30T05:25:55.679Z,77.39
2022-07-30T05:28:58.882Z,76.79
2022-07-30T05:32:03.644Z,75.59
2022-07-30T05:35:07.979Z,75.45
2022-07-30T05:38:11.513Z,74.52
2022-07-30T05:41:30.757Z,73.29
2022-07-30T05:44:36.744Z,72.36
2022-07-30T05:47:40.033Z,71.77
2022-07-30T05:50:44.019Z,71.26
2022-07-30T05:53:47.195Z,70.94
2022-07-30T05:56:52.049Z,70.37
2022-07-30T05:59:54.875Z,69.51
2022-07-30T06:02:58.179Z,69.33
2022-07-30T06:06:06.667Z,68.60
2022-07-30T06:09:09.839Z,68.39
2022-07-30T06:12:13.038Z,68.53
2022-07-30T06:15:18.569Z,68.90
2022-07-30T06:18:25.111Z,68.30
2022-07-30T06:21:28.051Z,68.54
2022-07-30T06:24:52.856Z,68.45
2022-07-30T06:27:55.747Z,69.31
2022-07-30T06:30:59.652Z,68.81
2022-07-30T06:34:02.864Z,68.49
2022-07-30T06:37:06.419Z,68.11
2022-07-30T06:40:10.684Z,68.05
2022-07-30T06:43:14.806Z,67.83
2022-07-30T06:46:19.000Z,66.29
2022-07-30T06:49:23.327Z,66.25
2022-07-30T06:52:27.466Z,65.84
2022-07-30T06:55:30.855Z,66.03
2022-07-30T06:58:34.498Z,66.12
2022-07-30T07:01:39.064Z,66.12
2022-07-30T07:04:42.081Z,65.13
2022-07-30T07:07:56.500Z,64.50
2022-07-30T07:11:02.107Z,64.08
2022-07-30T07:14:05.446Z,64.49
2022-07-30T07:17:08.988Z,68.62
2022-07-30T07:20:14.026Z,75.43
2022-07-30T07:23:19.627Z,76.79
2022-07-30T07:26:24.095Z,78.00
2022-07-30T07:29:27.836Z,84.08
2022-07-30T07:32:31.320Z,93.32
2022-07-30T07:35:49.109Z,97.36
2022-07-30T07:38:54.758Z,97.58
2022-07-30T07:41:58.454Z,99.82
2022-07-30T07:45:02.118Z,100.00
2022-07-30T07:48:06.539Z,100.00
2022-07-30T07:51:10.794Z,100.00
2022-07-30T07:54:21.630Z,99.95
2022-07-30T07:57:25.339Z,100.00
2022-07-30T08:00:29.768Z,100.00
2022-07-30T08:03:33.198Z,100.00
2022-07-30T08:06:37.311Z,100.00
2022-07-30T08:09:44.688Z,100.00
2022-07-30T08:12:51.881Z,100.00
2022-07-30T08:15:57.008Z,100.00
2022-07-30T08:19:04.177Z,100.00
2022-07-30T08:22:08.238Z,100.00
2022-07-30T08:25:11.490Z,100.00
2022-07-30T08:28:35.877Z,100.00
2022-07-30T08:31:40.190Z,100.00
2022-07-30T08:34:43.251Z,100.00
2022-07-30T08:37:47.212Z,100.00
2022-07-30T08:40:50.938Z,100.00
2022-07-30T08:57:03.139Z,100.00
2022-07-30T09:00:11.177Z,100.00
2022-07-30T09:03:13.945Z,100.00
2022-07-30T09:06:16.922Z,100.00
2022-07-30T09:09:19.891Z,100.00
2022-07-30T09:12:40.476Z,100.00
2022-07-30T09:15:43.195Z,100.00
2022-07-30T09:18:46.887Z,100.00
2022-07-30T09:21:57.750Z,100.00
2022-07-30T09:25:01.128Z,100.00
2022-07-30T09:28:16.755Z,100.00
2022-07-30T09:35:13.301Z,100.00
2022-07-30T09:38:18.158Z,100.00
2022-07-30T09:41:39.344Z,100.00
2022-07-30T09:44:43.099Z,100.00
2022-07-30T09:47:50.545Z,100.00
2022-07-30T09:50:55.173Z,100.00
2022-07-30T09:54:00.441Z,100.00
2022-07-30T09:57:26.190Z,100.00
2022-07-30T10:00:32.787Z,100.00
2022-07-30T10:03:42.472Z,100.00
2022-07-30T10:07:00.515Z,100.00
2022-07-30T10:10:06.168Z,100.00
2022-07-30T10:13:13.681Z,100.00
2022-07-30T10:16:17.062Z,100.00
2022-07-30T10:19:39.479Z,100.00
2022-07-30T10:22:50.431Z,100.00
2022-07-30T10:25:57.456Z,100.00
2022-07-30T10:29:04.983Z,100.00
2022-07-30T10:32:09.374Z,100.00
2022-07-30T10:35:13.380Z,100.00
2022-07-30T10:38:41.320Z,100.00
2022-07-30T10:42:39.866Z,100.00
2022-07-30T10:45:49.816Z,100.00
2022-07-30T10:48:53.014Z,100.00
2022-07-30T10:51:57.476Z,100.00
2022-07-30T10:55:00.648Z,100.00
2022-07-30T10:58:12.327Z,100.00
2022-07-30T11:01:18.430Z,100.00
2022-07-30T11:04:25.854Z,100.00
2022-07-30T11:07:32.844Z,100.00
2022-07-30T11:10:43.988Z,100.00
2022-07-30T11:14:00.959Z,100.00
2022-07-30T11:17:03.683Z,100.00
2022-07-30T11:20:11.676Z,100.00
2022-07-30T11:23:20.800Z,100.00
2022-07-30T11:26:40.910Z,100.00
2022-07-30T11:29:50.794Z,100.00
2022-07-30T11:33:14.341Z,100.00
2022-07-30T11:36:17.023Z,100.00
2022-07-30T11:39:20.251Z,100.00
2022-07-30T11:42:34.871Z,100.00
2022-07-30T11:45:37.783Z,100.00
2022-07-30T11:48:42.437Z,100.00
2022-07-30T11:51:47.119Z,100.00
2022-07-30T11:54:54.170Z,100.00
2022-07-30T11:57:57.899Z,100.00
2022-07-30T12:01:03.550Z,100.00
2022-07-30T12:04:12.508Z,100.00
2022-07-30T12:07:22.691Z,100.00
2022-07-30T12:10:27.380Z,100.00
2022-07-30T12:13:44.884Z,99.05
2022-07-30T12:16:54.150Z,100.00
2022-07-30T12:19:56.754Z,100.00
2022-07-30T12:22:59.693Z,99.88
2022-07-30T12:26:02.535Z,100.00
2022-07-30T12:29:07.449Z,100.00
2022-07-30T12:32:10.018Z,100.00
2022-07-30T12:35:13.443Z,100.00
2022-07-30T12:38:17.261Z,100.00
2022-07-30T12:41:21.456Z,100.00
2022-07-30T12:44:41.659Z,100.00
2022-07-30T12:47:50.264Z,100.00
2022-07-30T12:51:05.484Z,100.00
2022-07-30T12:54:19.516Z,100.00
2022-07-30T12:57:22.269Z,100.00
2022-07-30T13:00:36.153Z,100.00
2022-07-30T13:03:39.522Z,97.91
2022-07-30T13:06:43.547Z,100.00
2022-07-30T13:09:46.094Z,97.79
2022-07-30T13:12:50.267Z,95.60
2022-07-30T13:16:01.356Z,94.48
2022-07-30T13:19:05.031Z,94.03
2022-07-30T13:22:07.727Z,94.97
2022-07-30T13:25:10.998Z,93.67
2022-07-30T13:28:13.780Z,96.83
2022-07-30T13:31:16.978Z,94.83
2022-07-30T13:34:20.215Z,95.34
2022-07-30T13:37:23.786Z,97.24
2022-07-30T13:40:41.573Z,98.52
2022-07-30T13:43:44.527Z,99.08
2022-07-30T13:46:47.408Z,100.00
2022-07-30T13:49:51.057Z,100.00
2022-07-30T13:52:53.814Z,100.00
2022-07-30T13:55:57.211Z,100.00
2022-07-30T13:59:00.692Z,98.55
2022-07-30T14:02:03.790Z,99.71
2022-07-30T14:05:07.259Z,99.33
2022-07-30T14:08:10.909Z,99.27
2022-07-30T14:11:13.983Z,100.00
2022-07-30T14:14:16.574Z,100.00
2022-07-30T14:17:19.581Z,100.00
2022-07-30T14:20:22.150Z,100.00
2022-07-30T14:23:25.282Z,100.00
2022-07-30T14:26:36.623Z,100.00
2022-07-30T14:29:39.678Z,99.82
2022-07-30T14:32:42.609Z,99.90
2022-07-30T14:35:45.471Z,99.62
2022-07-30T14:38:48.131Z,99.58
2022-07-30T14:41:55.589Z,98.80
2022-07-30T14:44:58.589Z,97.94
2022-07-30T14:48:01.448Z,96.85
2022-07-30T14:51:19.703Z,98.81
2022-07-30T14:54:31.410Z,95.57
2022-07-30T14:57:34.184Z,96.54
2022-07-30T15:00:48.603Z,98.01
2022-07-30T15:03:51.796Z,97.96
2022-07-30T15:06:54.855Z,99.10
2022-07-30T15:09:57.421Z,97.14
2022-07-30T15:13:00.659Z,96.90
2022-07-30T15:16:03.348Z,96.52
2022-07-30T15:19:06.672Z,97.25
2022-07-30T15:22:09.970Z,96.64
2022-07-30T15:25:12.836Z,96.90
2022-07-30T15:28:15.551Z,95.38
2022-07-30T15:31:23.338Z,92.86
2022-07-30T15:34:26.793Z,90.94
2022-07-30T15:37:29.631Z,91.07
2022-07-30T15:40:32.379Z,89.39
2022-07-30T15:43:35.186Z,88.25
2022-07-30T15:46:37.900Z,87.07
2022-07-30T15:49:40.862Z,86.90
2022-07-30T15:52:44.162Z,87.13
2022-07-30T15:55:47.718Z,85.81
2022-07-30T15:58:50.316Z,86.03
2022-07-30T16:01:53.242Z,84.37
2022-07-30T16:04:56.106Z,86.37
2022-07-30T16:07:59.102Z,87.29
2022-07-30T16:11:04.510Z,87.14
2022-07-30T16:14:07.226Z,85.37
2022-07-30T16:17:13.957Z,85.38
2022-07-30T16:20:17.319Z,84.80
2022-07-30T16:23:21.754Z,85.82
2022-07-30T16:26:24.671Z,82.94
2022-07-30T16:29:27.981Z,84.20
2022-07-30T16:32:30.582Z,84.25
2022-07-30T16:35:33.580Z,83.43
2022-07-30T16:38:52.844Z,83.17
2022-07-30T16:41:55.825Z,83.29
2022-07-30T16:45:01.975Z,82.71
2022-07-30T16:48:08.925Z,82.92
2022-07-30T16:51:11.551Z,85.21
2022-07-30T16:54:16.252Z,82.65
2022-07-30T16:57:18.862Z,83.92
2022-07-30T17:00:23.387Z,82.84
2022-07-30T17:03:28.419Z,84.14
2022-07-30T17:06:31.671Z,83.22
2022-07-30T17:09:36.767Z,84.50
2022-07-30T17:12:40.237Z,83.46
2022-07-30T17:15:43.014Z,83.18
2022-07-30T17:18:46.011Z,84.41
2022-07-30T17:21:48.868Z,83.47
2022-07-30T17:24:51.809Z,84.63
2022-07-30T17:27:58.408Z,84.93
2022-07-30T17:31:01.498Z,85.75
2022-07-30T17:34:04.119Z,86.64
2022-07-30T17:37:06.910Z,85.59
2022-07-30T17:40:29.143Z,86.87
2022-07-30T17:43:34.245Z,86.31
2022-07-30T17:46:36.978Z,86.48
2022-07-30T17:49:39.981Z,87.62
2022-07-30T17:52:42.592Z,87.70
2022-07-30T17:55:57.927Z,88.05
2022-07-30T17:59:00.906Z,89.10
2022-07-30T18:02:05.040Z,89.09
2022-07-30T18:05:10.589Z,89.53
2022-07-30T18:08:13.130Z,89.81
2022-07-30T18:11:16.807Z,90.95
2022-07-30T18:14:19.415Z,90.42
2022-07-30T18:17:22.524Z,90.63
2022-07-30T18:20:25.424Z,91.87
2022-07-30T18:23:34.576Z,92.70
2022-07-30T18:26:38.697Z,92.48
2022-07-30T18:29:41.770Z,92.87
2022-07-30T18:32:45.061Z,92.72
2022-07-30T18:35:47.932Z,93.09
2022-07-30T18:38:51.190Z,93.84
2022-07-30T18:41:54.348Z,93.21
2022-07-30T18:44:57.141Z,91.43
2022-07-30T18:48:00.014Z,91.58
2022-07-30T18:51:03.484Z,92.31
2022-07-30T18:54:06.831Z,92.02
2022-07-30T18:57:14.019Z,90.29
2022-07-30T19:00:34.546Z,87.71
2022-07-30T19:03:38.263Z,86.70
2022-07-30T19:06:41.346Z,86.30
2022-07-30T19:09:45.138Z,85.58
2022-07-30T19:12:48.015Z,84.88
2022-07-30T19:15:51.071Z,85.39
2022-07-30T19:18:54.096Z,85.89
2022-07-30T19:21:56.987Z,85.44
2022-07-30T19:24:59.869Z,86.11
2022-07-30T19:28:03.288Z,85.94
2022-07-30T19:31:06.304Z,85.50
2022-07-30T19:34:10.867Z,86.24
2022-07-30T19:37:13.698Z,86.52
2022-07-30T19:40:16.269Z,87.21
2022-07-30T19:43:24.002Z,87.56
2022-07-30T19:46:27.625Z,88.09
2022-07-30T19:49:32.541Z,88.27
2022-07-30T19:52:37.750Z,87.14
2022-07-30T19:55:41.334Z,87.80
2022-07-30T19:58:44.877Z,87.77
2022-07-30T20:01:51.909Z,87.75
2022-07-30T20:04:54.883Z,87.97
2022-07-30T20:07:58.374Z,87.08
2022-07-30T20:11:02.265Z,86.89
2022-07-30T20:14:06.090Z,86.75
2022-07-30T20:17:09.152Z,87.02
2022-07-30T20:20:12.803Z,85.43
2022-07-30T20:23:15.671Z,85.53
2022-07-30T20:26:19.060Z,85.43
2022-07-30T20:29:22.219Z,86.00
2022-07-30T20:32:25.777Z,85.68
2022-07-30T20:35:29.256Z,84.99
2022-07-30T20:38:34.474Z,85.50
2022-07-30T20:41:40.418Z,86.41
2022-07-30T20:44:49.345Z,85.69
2022-07-30T20:47:56.757Z,85.97
2022-07-30T20:50:59.364Z,85.91
2022-07-30T20:54:03.923Z,85.92
2022-07-30T20:57:08.008Z,86.27
2022-07-30T21:00:20.129Z,87.37
2022-07-30T21:03:22.929Z,86.19
2022-07-30T21:06:26.304Z,86.39
2022-07-30T21:09:49.861Z,86.82
2022-07-30T21:12:58.788Z,87.34
2022-07-30T21:16:15.467Z,87.46
2022-07-30T21:19:19.669Z,88.00
2022-07-30T21:22:25.252Z,88.16
2022-07-30T21:25:32.447Z,88.53
2022-07-30T21:28:36.179Z,88.47
2022-07-30T21:32:08.795Z,89.36
2022-07-30T21:35:08.193Z,89.71
2022-07-30T21:38:11.564Z,89.27
2022-07-30T21:41:15.148Z,89.28
2022-07-30T21:44:18.378Z,89.96
2022-07-30T21:47:21.142Z,90.16
2022-07-30T21:50:24.135Z,90.68
2022-07-30T21:56:49.465Z,90.24
2022-07-30T21:59:51.997Z,90.97
2022-07-30T22:02:54.892Z,90.59
2022-07-30T22:05:57.888Z,90.73
2022-07-30T22:09:03.474Z,90.78
2022-07-30T22:12:17.928Z,91.38
2022-07-30T22:15:20.951Z,91.61
2022-07-30T22:18:26.061Z,92.18
2022-07-30T22:21:28.682Z,92.38
2022-07-30T22:24:31.586Z,92.13
2022-07-30T22:27:39.467Z,92.95
2022-07-30T22:30:43.582Z,93.31
2022-07-30T22:33:46.087Z,93.92
2022-07-30T22:36:48.912Z,94.43
2022-07-30T22:39:54.260Z,94.65
2022-07-30T22:42:57.418Z,95.33
2022-07-30T22:46:00.245Z,96.00
2022-07-30T22:49:03.482Z,96.18
2022-07-30T22:52:16.844Z,96.53
2022-07-30T22:55:28.610Z,96.83
2022-07-30T22:58:32.320Z,97.45
2022-07-30T23:01:40.049Z,97.98
2022-07-30T23:04:46.113Z,97.91
2022-07-30T23:07:51.617Z,98.28
2022-07-30T23:10:54.942Z,98.87
2022-07-30T23:12:27.746Z,90.21
2022-07-30T23:13:59.404Z,98.85
2022-07-30T23:17:02.238Z,98.92
2022-07-30T23:20:07.600Z,99.29
2022-07-30T23:23:11.563Z,99.31
2022-07-30T23:26:14.681Z,99.68
2022-07-30T23:29:17.258Z,99.97
2022-07-30T23:32:20.260Z,100.00
2022-07-30T23:35:22.910Z,100.00
2022-07-30T23:38:26.900Z,100.00
2022-07-30T23:41:30.753Z,100.00
2022-07-30T23:44:37.095Z,100.00
2022-07-30T23:48:01.604Z,100.00
2022-07-30T23:51:02.950Z,100.00
2022-07-30T23:54:06.387Z,100.00
2022-07-30T23:57:09.206Z,100.00
